sensor_id;sensor_type;location;lat;lon;timestamp;temperature;humidity
10826;DHT22;5466;55.898;14.094;2023-10-31T00:01:42;5.90;99.90
10826;DHT22;5466;55.898;14.094;2023-10-31T00:03:43;5.60;99.90
10826;DHT22;5466;55.898;14.094;2023-10-31T00:05:45;5.50;99.90
10826;DHT22;5466;55.898;14.094;2023-10-31T00:07:45;5.40;99.90
10826;DHT22;5466;55.898;14.094;2023-10-31T00:09:46;5.30;99.90
10826;DHT22;5466;55.898;14.094;2023-10-31T00:11:46;5.30;99.90
10826;DHT22;5466;55.898;14.094;2023-10-31T00:13:47;5.20;99.90
10826;DHT22;5466;55.898;14.094;2023-10-31T00:15:47;5.20;99.90
10826;DHT22;5466;55.898;14.094;2023-10-31T00:17:48;5.20;99.90
10826;DHT22;5466;55.898;14.094;2023-10-31T00:19:49;5.10;99.90
10826;DHT22;5466;55.898;14.094;2023-10-31T00:21:49;5.30;99.90
10826;DHT22;5466;55.898;14.094;2023-10-31T00:23:50;5.10;99.90
10826;DHT22;5466;55.898;14.094;2023-10-31T00:25:51;5.10;99.90
10826;DHT22;5466;55.898;14.094;2023-10-31T00:27:51;5.00;99.90
10826;DHT22;5466;55.898;14.094;2023-10-31T00:29:52;5.00;99.90
10826;DHT22;5466;55.898;14.094;2023-10-31T00:31:52;5.00;99.90
10826;DHT22;5466;55.898;14.094;2023-10-31T00:33:53;5.20;99.90
10826;DHT22;5466;55.898;14.094;2023-10-31T00:35:54;5.00;99.90
10826;DHT22;5466;55.898;14.094;2023-10-31T00:37:54;5.10;99.90
10826;DHT22;5466;55.898;14.094;2023-10-31T00:39:55;5.10;99.90
10826;DHT22;5466;55.898;14.094;2023-10-31T00:41:55;5.10;99.90
10826;DHT22;5466;55.898;14.094;2023-10-31T00:43:56;5.20;99.90
10826;DHT22;5466;55.898;14.094;2023-10-31T00:45:58;5.20;99.90
10826;DHT22;5466;55.898;14.094;2023-10-31T00:47:58;5.30;99.90
10826;DHT22;5466;55.898;14.094;2023-10-31T00:49:59;5.30;99.90
10826;DHT22;5466;55.898;14.094;2023-10-31T00:51:59;5.30;99.90
10826;DHT22;5466;55.898;14.094;2023-10-31T00:54:00;5.40;99.90
10826;DHT22;5466;55.898;14.094;2023-10-31T00:56:01;5.40;99.90
10826;DHT22;5466;55.898;14.094;2023-10-31T00:58:02;5.50;99.90
10826;DHT22;5466;55.898;14.094;2023-10-31T01:00:03;5.50;99.90
10826;DHT22;5466;55.898;14.094;2023-10-31T01:02:03;5.50;99.90
10826;DHT22;5466;55.898;14.094;2023-10-31T01:04:04;5.60;99.90
10826;DHT22;5466;55.898;14.094;2023-10-31T01:06:05;5.60;99.90
10826;DHT22;5466;55.898;14.094;2023-10-31T01:08:06;5.60;99.90
10826;DHT22;5466;55.898;14.094;2023-10-31T01:10:07;5.60;99.90
10826;DHT22;5466;55.898;14.094;2023-10-31T01:12:07;5.60;99.90
10826;DHT22;5466;55.898;14.094;2023-10-31T01:14:10;5.70;99.90
10826;DHT22;5466;55.898;14.094;2023-10-31T01:16:12;5.70;99.90
10826;DHT22;5466;55.898;14.094;2023-10-31T01:18:12;5.70;99.90
10826;DHT22;5466;55.898;14.094;2023-10-31T01:20:13;5.70;99.90
10826;DHT22;5466;55.898;14.094;2023-10-31T01:22:13;5.80;99.90
10826;DHT22;5466;55.898;14.094;2023-10-31T01:24:14;5.80;99.90
10826;DHT22;5466;55.898;14.094;2023-10-31T01:26:15;5.80;99.90
10826;DHT22;5466;55.898;14.094;2023-10-31T01:28:15;5.80;99.90
10826;DHT22;5466;55.898;14.094;2023-10-31T01:30:16;5.80;99.90
10826;DHT22;5466;55.898;14.094;2023-10-31T01:32:17;5.90;99.90
10826;DHT22;5466;55.898;14.094;2023-10-31T01:34:18;5.90;99.90
10826;DHT22;5466;55.898;14.094;2023-10-31T01:36:19;5.90;99.90
10826;DHT22;5466;55.898;14.094;2023-10-31T01:38:19;6.00;99.90
10826;DHT22;5466;55.898;14.094;2023-10-31T01:40:20;6.00;99.90
10826;DHT22;5466;55.898;14.094;2023-10-31T01:42:20;6.00;99.90
10826;DHT22;5466;55.898;14.094;2023-10-31T01:44:21;6.00;99.90
10826;DHT22;5466;55.898;14.094;2023-10-31T01:46:22;6.10;99.90
10826;DHT22;5466;55.898;14.094;2023-10-31T01:48:23;6.10;99.90
10826;DHT22;5466;55.898;14.094;2023-10-31T01:50:25;6.10;99.90
10826;DHT22;5466;55.898;14.094;2023-10-31T01:52:26;6.20;99.90
10826;DHT22;5466;55.898;14.094;2023-10-31T01:54:27;6.10;99.90
10826;DHT22;5466;55.898;14.094;2023-10-31T01:56:28;6.20;99.90
10826;DHT22;5466;55.898;14.094;2023-10-31T01:58:33;6.20;99.90
10826;DHT22;5466;55.898;14.094;2023-10-31T02:00:34;6.20;99.90
10826;DHT22;5466;55.898;14.094;2023-10-31T02:02:36;6.20;99.90
10826;DHT22;5466;55.898;14.094;2023-10-31T02:04:38;6.30;99.90
10826;DHT22;5466;55.898;14.094;2023-10-31T02:06:38;6.30;99.90
10826;DHT22;5466;55.898;14.094;2023-10-31T02:08:39;6.30;99.90
10826;DHT22;5466;55.898;14.094;2023-10-31T02:10:40;6.30;99.90
10826;DHT22;5466;55.898;14.094;2023-10-31T02:12:40;6.30;99.90
10826;DHT22;5466;55.898;14.094;2023-10-31T02:14:41;6.30;99.90
10826;DHT22;5466;55.898;14.094;2023-10-31T02:16:41;6.20;99.90
10826;DHT22;5466;55.898;14.094;2023-10-31T02:18:42;6.30;99.90
10826;DHT22;5466;55.898;14.094;2023-10-31T02:20:43;6.40;99.90
10826;DHT22;5466;55.898;14.094;2023-10-31T02:22:44;6.50;99.90
10826;DHT22;5466;55.898;14.094;2023-10-31T02:24:45;6.40;99.90
10826;DHT22;5466;55.898;14.094;2023-10-31T02:26:45;6.40;99.90
10826;DHT22;5466;55.898;14.094;2023-10-31T02:28:46;6.30;99.90
10826;DHT22;5466;55.898;14.094;2023-10-31T02:30:47;6.40;99.90
10826;DHT22;5466;55.898;14.094;2023-10-31T02:32:47;6.50;99.90
10826;DHT22;5466;55.898;14.094;2023-10-31T02:34:49;6.50;99.90
10826;DHT22;5466;55.898;14.094;2023-10-31T02:36:49;6.50;99.90
10826;DHT22;5466;55.898;14.094;2023-10-31T02:38:50;6.60;99.90
10826;DHT22;5466;55.898;14.094;2023-10-31T02:40:51;6.60;99.90
10826;DHT22;5466;55.898;14.094;2023-10-31T02:42:51;6.70;99.90
10826;DHT22;5466;55.898;14.094;2023-10-31T02:44:52;6.70;99.90
10826;DHT22;5466;55.898;14.094;2023-10-31T02:46:53;6.70;99.90
10826;DHT22;5466;55.898;14.094;2023-10-31T02:48:53;6.80;99.90
10826;DHT22;5466;55.898;14.094;2023-10-31T02:50:54;6.80;99.90
10826;DHT22;5466;55.898;14.094;2023-10-31T02:52:54;6.90;99.90
10826;DHT22;5466;55.898;14.094;2023-10-31T02:54:55;6.90;99.90
10826;DHT22;5466;55.898;14.094;2023-10-31T02:56:56;6.90;99.90
10826;DHT22;5466;55.898;14.094;2023-10-31T02:58:56;6.90;99.90
10826;DHT22;5466;55.898;14.094;2023-10-31T03:00:57;7.00;99.90
10826;DHT22;5466;55.898;14.094;2023-10-31T03:02:57;7.00;99.90
10826;DHT22;5466;55.898;14.094;2023-10-31T03:04:58;7.00;99.90
10826;DHT22;5466;55.898;14.094;2023-10-31T03:06:58;7.00;99.90
10826;DHT22;5466;55.898;14.094;2023-10-31T03:08:59;7.00;99.90
10826;DHT22;5466;55.898;14.094;2023-10-31T03:11:00;7.10;99.90
10826;DHT22;5466;55.898;14.094;2023-10-31T03:13:00;7.00;99.90
10826;DHT22;5466;55.898;14.094;2023-10-31T03:15:04;7.20;99.90
10826;DHT22;5466;55.898;14.094;2023-10-31T03:17:05;7.10;99.90
10826;DHT22;5466;55.898;14.094;2023-10-31T03:19:05;7.10;99.90
10826;DHT22;5466;55.898;14.094;2023-10-31T03:21:06;7.10;99.90
10826;DHT22;5466;55.898;14.094;2023-10-31T03:23:07;7.20;99.90
10826;DHT22;5466;55.898;14.094;2023-10-31T03:25:07;7.20;99.90
10826;DHT22;5466;55.898;14.094;2023-10-31T03:27:08;7.20;99.90
10826;DHT22;5466;55.898;14.094;2023-10-31T03:29:09;7.20;99.90
10826;DHT22;5466;55.898;14.094;2023-10-31T03:31:10;7.20;99.90
10826;DHT22;5466;55.898;14.094;2023-10-31T03:33:10;7.20;99.90
10826;DHT22;5466;55.898;14.094;2023-10-31T03:35:11;7.20;99.90
10826;DHT22;5466;55.898;14.094;2023-10-31T03:37:11;7.20;99.90
10826;DHT22;5466;55.898;14.094;2023-10-31T03:39:12;7.30;99.90
10826;DHT22;5466;55.898;14.094;2023-10-31T03:41:13;7.40;99.90
10826;DHT22;5466;55.898;14.094;2023-10-31T03:43:13;7.30;99.90
10826;DHT22;5466;55.898;14.094;2023-10-31T03:45:14;7.30;99.90
10826;DHT22;5466;55.898;14.094;2023-10-31T03:47:14;7.30;99.90
10826;DHT22;5466;55.898;14.094;2023-10-31T03:49:15;7.40;99.90
10826;DHT22;5466;55.898;14.094;2023-10-31T03:51:16;7.40;99.90
10826;DHT22;5466;55.898;14.094;2023-10-31T03:53:17;7.30;99.90
10826;DHT22;5466;55.898;14.094;2023-10-31T03:55:17;7.40;99.90
10826;DHT22;5466;55.898;14.094;2023-10-31T03:57:18;7.40;99.90
10826;DHT22;5466;55.898;14.094;2023-10-31T03:59:18;7.40;99.90
10826;DHT22;5466;55.898;14.094;2023-10-31T04:01:19;7.40;99.90
10826;DHT22;5466;55.898;14.094;2023-10-31T04:03:20;7.40;99.90
10826;DHT22;5466;55.898;14.094;2023-10-31T04:05:20;7.50;99.90
10826;DHT22;5466;55.898;14.094;2023-10-31T04:07:21;7.40;99.90
10826;DHT22;5466;55.898;14.094;2023-10-31T04:09:22;7.40;99.90
10826;DHT22;5466;55.898;14.094;2023-10-31T04:11:22;7.40;99.90
10826;DHT22;5466;55.898;14.094;2023-10-31T04:13:23;7.50;99.90
10826;DHT22;5466;55.898;14.094;2023-10-31T04:15:23;7.50;99.90
10826;DHT22;5466;55.898;14.094;2023-10-31T04:17:24;7.50;99.90
10826;DHT22;5466;55.898;14.094;2023-10-31T04:19:25;7.50;99.90
10826;DHT22;5466;55.898;14.094;2023-10-31T04:21:26;7.50;99.90
10826;DHT22;5466;55.898;14.094;2023-10-31T04:23:26;7.40;99.90
10826;DHT22;5466;55.898;14.094;2023-10-31T04:25:27;7.50;99.90
10826;DHT22;5466;55.898;14.094;2023-10-31T04:27:29;7.30;99.90
10826;DHT22;5466;55.898;14.094;2023-10-31T04:29:30;7.40;99.90
10826;DHT22;5466;55.898;14.094;2023-10-31T04:31:37;7.40;99.90
10826;DHT22;5466;55.898;14.094;2023-10-31T04:33:38;7.50;99.90
10826;DHT22;5466;55.898;14.094;2023-10-31T04:35:38;7.50;99.90
10826;DHT22;5466;55.898;14.094;2023-10-31T04:37:39;7.60;99.90
10826;DHT22;5466;55.898;14.094;2023-10-31T04:39:39;7.50;99.90
10826;DHT22;5466;55.898;14.094;2023-10-31T04:41:40;7.60;99.90
10826;DHT22;5466;55.898;14.094;2023-10-31T04:43:40;7.60;99.90
10826;DHT22;5466;55.898;14.094;2023-10-31T04:45:44;7.60;99.90
10826;DHT22;5466;55.898;14.094;2023-10-31T04:47:44;7.60;99.90
10826;DHT22;5466;55.898;14.094;2023-10-31T04:49:45;7.60;99.90
10826;DHT22;5466;55.898;14.094;2023-10-31T04:51:46;7.60;99.90
10826;DHT22;5466;55.898;14.094;2023-10-31T04:53:47;7.60;99.90
10826;DHT22;5466;55.898;14.094;2023-10-31T04:55:47;7.60;99.90
10826;DHT22;5466;55.898;14.094;2023-10-31T04:57:48;7.60;99.90
10826;DHT22;5466;55.898;14.094;2023-10-31T04:59:48;7.70;99.90
10826;DHT22;5466;55.898;14.094;2023-10-31T05:01:50;7.70;99.90
10826;DHT22;5466;55.898;14.094;2023-10-31T05:03:51;7.70;99.90
10826;DHT22;5466;55.898;14.094;2023-10-31T05:05:52;7.70;99.90
10826;DHT22;5466;55.898;14.094;2023-10-31T05:07:53;7.70;99.90
10826;DHT22;5466;55.898;14.094;2023-10-31T05:09:53;7.70;99.90
10826;DHT22;5466;55.898;14.094;2023-10-31T05:11:54;7.70;99.90
10826;DHT22;5466;55.898;14.094;2023-10-31T05:13:54;7.70;99.90
10826;DHT22;5466;55.898;14.094;2023-10-31T05:15:55;7.70;99.90
10826;DHT22;5466;55.898;14.094;2023-10-31T05:17:55;7.80;99.90
10826;DHT22;5466;55.898;14.094;2023-10-31T05:19:56;7.80;99.90
10826;DHT22;5466;55.898;14.094;2023-10-31T05:21:57;7.80;99.90
10826;DHT22;5466;55.898;14.094;2023-10-31T05:23:57;7.80;99.90
10826;DHT22;5466;55.898;14.094;2023-10-31T05:25:58;7.80;99.90
10826;DHT22;5466;55.898;14.094;2023-10-31T05:27:58;7.80;99.90
10826;DHT22;5466;55.898;14.094;2023-10-31T05:29:59;7.80;99.90
10826;DHT22;5466;55.898;14.094;2023-10-31T05:32:00;7.80;99.90
10826;DHT22;5466;55.898;14.094;2023-10-31T05:34:01;7.80;99.90
10826;DHT22;5466;55.898;14.094;2023-10-31T05:36:04;7.80;99.90
10826;DHT22;5466;55.898;14.094;2023-10-31T05:38:05;7.80;99.90
10826;DHT22;5466;55.898;14.094;2023-10-31T05:40:06;7.80;99.90
10826;DHT22;5466;55.898;14.094;2023-10-31T05:42:06;7.80;99.90
10826;DHT22;5466;55.898;14.094;2023-10-31T05:44:07;7.80;99.90
10826;DHT22;5466;55.898;14.094;2023-10-31T05:46:08;7.80;99.90
10826;DHT22;5466;55.898;14.094;2023-10-31T05:48:13;7.90;99.90
10826;DHT22;5466;55.898;14.094;2023-10-31T05:50:15;7.90;99.90
10826;DHT22;5466;55.898;14.094;2023-10-31T05:52:15;7.90;99.90
10826;DHT22;5466;55.898;14.094;2023-10-31T05:54:16;7.90;99.90
10826;DHT22;5466;55.898;14.094;2023-10-31T05:56:16;7.90;99.90
10826;DHT22;5466;55.898;14.094;2023-10-31T05:58:17;8.00;99.90
10826;DHT22;5466;55.898;14.094;2023-10-31T06:00:18;8.00;99.90
10826;DHT22;5466;55.898;14.094;2023-10-31T06:02:18;8.10;99.90
10826;DHT22;5466;55.898;14.094;2023-10-31T06:04:19;8.10;99.90
10826;DHT22;5466;55.898;14.094;2023-10-31T06:06:20;8.10;99.90
10826;DHT22;5466;55.898;14.094;2023-10-31T06:08:20;8.10;99.90
10826;DHT22;5466;55.898;14.094;2023-10-31T06:10:21;8.20;99.90
10826;DHT22;5466;55.898;14.094;2023-10-31T06:12:21;8.20;99.90
10826;DHT22;5466;55.898;14.094;2023-10-31T06:14:22;8.20;99.90
10826;DHT22;5466;55.898;14.094;2023-10-31T06:16:23;8.20;99.90
10826;DHT22;5466;55.898;14.094;2023-10-31T06:18:23;8.20;99.90
10826;DHT22;5466;55.898;14.094;2023-10-31T06:20:24;8.20;99.90
10826;DHT22;5466;55.898;14.094;2023-10-31T06:22:25;8.30;99.90
10826;DHT22;5466;55.898;14.094;2023-10-31T06:24:26;8.30;99.90
10826;DHT22;5466;55.898;14.094;2023-10-31T06:26:27;8.30;99.90
10826;DHT22;5466;55.898;14.094;2023-10-31T06:28:27;8.30;99.90
10826;DHT22;5466;55.898;14.094;2023-10-31T06:30:28;8.40;99.90
10826;DHT22;5466;55.898;14.094;2023-10-31T06:32:28;8.40;99.90
10826;DHT22;5466;55.898;14.094;2023-10-31T06:34:29;8.30;99.90
10826;DHT22;5466;55.898;14.094;2023-10-31T06:36:30;8.30;99.90
10826;DHT22;5466;55.898;14.094;2023-10-31T06:38:30;8.30;99.90
10826;DHT22;5466;55.898;14.094;2023-10-31T06:40:31;8.30;99.90
10826;DHT22;5466;55.898;14.094;2023-10-31T06:42:31;8.30;99.90
10826;DHT22;5466;55.898;14.094;2023-10-31T06:44:32;8.30;99.90
10826;DHT22;5466;55.898;14.094;2023-10-31T06:46:33;8.30;99.90
10826;DHT22;5466;55.898;14.094;2023-10-31T06:48:33;8.40;99.90
10826;DHT22;5466;55.898;14.094;2023-10-31T06:50:34;8.40;99.90
10826;DHT22;5466;55.898;14.094;2023-10-31T06:52:35;8.50;99.90
10826;DHT22;5466;55.898;14.094;2023-10-31T06:54:35;8.40;99.90
10826;DHT22;5466;55.898;14.094;2023-10-31T06:56:36;8.40;99.90
10826;DHT22;5466;55.898;14.094;2023-10-31T06:58:36;8.50;99.90
10826;DHT22;5466;55.898;14.094;2023-10-31T07:00:37;8.30;99.90
10826;DHT22;5466;55.898;14.094;2023-10-31T07:02:38;8.40;99.90
10826;DHT22;5466;55.898;14.094;2023-10-31T07:04:38;8.50;99.90
10826;DHT22;5466;55.898;14.094;2023-10-31T07:06:39;8.50;99.90
10826;DHT22;5466;55.898;14.094;2023-10-31T07:08:39;8.50;99.90
10826;DHT22;5466;55.898;14.094;2023-10-31T07:10:40;8.50;99.90
10826;DHT22;5466;55.898;14.094;2023-10-31T07:12:44;8.50;99.90
10826;DHT22;5466;55.898;14.094;2023-10-31T07:14:44;8.50;99.90
10826;DHT22;5466;55.898;14.094;2023-10-31T07:16:45;8.60;99.90
10826;DHT22;5466;55.898;14.094;2023-10-31T07:18:46;8.60;99.90
10826;DHT22;5466;55.898;14.094;2023-10-31T07:20:46;8.60;99.90
10826;DHT22;5466;55.898;14.094;2023-10-31T07:22:47;8.50;99.90
10826;DHT22;5466;55.898;14.094;2023-10-31T07:24:47;8.60;99.90
10826;DHT22;5466;55.898;14.094;2023-10-31T07:26:48;8.70;99.90
10826;DHT22;5466;55.898;14.094;2023-10-31T07:28:49;8.60;99.90
10826;DHT22;5466;55.898;14.094;2023-10-31T07:30:50;8.60;99.90
10826;DHT22;5466;55.898;14.094;2023-10-31T07:32:51;8.60;99.90
10826;DHT22;5466;55.898;14.094;2023-10-31T07:34:52;8.60;99.90
10826;DHT22;5466;55.898;14.094;2023-10-31T07:36:53;8.60;99.90
10826;DHT22;5466;55.898;14.094;2023-10-31T07:38:56;8.60;99.90
10826;DHT22;5466;55.898;14.094;2023-10-31T07:40:57;8.60;99.90
10826;DHT22;5466;55.898;14.094;2023-10-31T07:42:57;8.60;99.90
10826;DHT22;5466;55.898;14.094;2023-10-31T07:44:58;8.50;99.90
10826;DHT22;5466;55.898;14.094;2023-10-31T07:46:58;8.60;99.90
10826;DHT22;5466;55.898;14.094;2023-10-31T07:48:59;8.70;99.90
10826;DHT22;5466;55.898;14.094;2023-10-31T07:51:00;8.60;99.90
10826;DHT22;5466;55.898;14.094;2023-10-31T07:53:00;8.50;99.90
10826;DHT22;5466;55.898;14.094;2023-10-31T07:55:01;8.50;99.90
10826;DHT22;5466;55.898;14.094;2023-10-31T07:57:01;8.50;99.90
10826;DHT22;5466;55.898;14.094;2023-10-31T07:59:02;8.50;99.90
10826;DHT22;5466;55.898;14.094;2023-10-31T08:01:04;8.60;99.90
10826;DHT22;5466;55.898;14.094;2023-10-31T08:03:05;8.60;99.90
10826;DHT22;5466;55.898;14.094;2023-10-31T08:05:07;8.60;99.90
10826;DHT22;5466;55.898;14.094;2023-10-31T08:07:08;8.50;99.90
10826;DHT22;5466;55.898;14.094;2023-10-31T08:09:09;8.60;99.90
10826;DHT22;5466;55.898;14.094;2023-10-31T08:11:10;8.50;99.90
10826;DHT22;5466;55.898;14.094;2023-10-31T08:13:11;8.60;99.90
10826;DHT22;5466;55.898;14.094;2023-10-31T08:15:11;8.60;99.90
10826;DHT22;5466;55.898;14.094;2023-10-31T08:17:13;8.60;99.90
10826;DHT22;5466;55.898;14.094;2023-10-31T08:19:14;8.60;99.90
10826;DHT22;5466;55.898;14.094;2023-10-31T08:21:14;8.60;99.90
10826;DHT22;5466;55.898;14.094;2023-10-31T08:23:15;8.60;99.90
10826;DHT22;5466;55.898;14.094;2023-10-31T08:25:17;8.60;99.90
10826;DHT22;5466;55.898;14.094;2023-10-31T08:27:18;8.60;99.90
10826;DHT22;5466;55.898;14.094;2023-10-31T08:29:18;8.60;99.90
10826;DHT22;5466;55.898;14.094;2023-10-31T08:31:19;8.60;99.90
10826;DHT22;5466;55.898;14.094;2023-10-31T08:33:20;8.60;99.90
10826;DHT22;5466;55.898;14.094;2023-10-31T08:35:21;8.60;99.90
10826;DHT22;5466;55.898;14.094;2023-10-31T08:37:21;8.60;99.90
10826;DHT22;5466;55.898;14.094;2023-10-31T08:39:22;8.70;99.90
10826;DHT22;5466;55.898;14.094;2023-10-31T08:41:23;8.70;99.90
10826;DHT22;5466;55.898;14.094;2023-10-31T08:43:23;8.70;99.90
10826;DHT22;5466;55.898;14.094;2023-10-31T08:45:24;8.70;99.90
10826;DHT22;5466;55.898;14.094;2023-10-31T08:47:25;8.70;99.90
10826;DHT22;5466;55.898;14.094;2023-10-31T08:49:25;8.80;99.90
10826;DHT22;5466;55.898;14.094;2023-10-31T08:51:26;8.80;99.90
10826;DHT22;5466;55.898;14.094;2023-10-31T08:53:26;8.90;99.90
10826;DHT22;5466;55.898;14.094;2023-10-31T08:55:27;8.90;99.90
10826;DHT22;5466;55.898;14.094;2023-10-31T08:57:28;9.00;99.90
10826;DHT22;5466;55.898;14.094;2023-10-31T08:59:29;8.80;99.90
10826;DHT22;5466;55.898;14.094;2023-10-31T09:01:29;8.80;99.90
10826;DHT22;5466;55.898;14.094;2023-10-31T09:03:30;8.80;99.90
10826;DHT22;5466;55.898;14.094;2023-10-31T09:05:31;8.80;99.90
10826;DHT22;5466;55.898;14.094;2023-10-31T09:07:31;8.80;99.90
10826;DHT22;5466;55.898;14.094;2023-10-31T09:09:32;8.70;99.90
10826;DHT22;5466;55.898;14.094;2023-10-31T09:11:33;8.80;99.90
10826;DHT22;5466;55.898;14.094;2023-10-31T09:13:34;8.70;99.90
10826;DHT22;5466;55.898;14.094;2023-10-31T09:15:34;8.80;99.90
10826;DHT22;5466;55.898;14.094;2023-10-31T09:17:35;8.80;99.90
10826;DHT22;5466;55.898;14.094;2023-10-31T09:19:35;8.90;99.90
10826;DHT22;5466;55.898;14.094;2023-10-31T09:21:36;8.90;99.90
10826;DHT22;5466;55.898;14.094;2023-10-31T09:23:36;8.90;99.90
10826;DHT22;5466;55.898;14.094;2023-10-31T09:25:37;8.90;99.90
10826;DHT22;5466;55.898;14.094;2023-10-31T09:27:40;8.90;99.90
10826;DHT22;5466;55.898;14.094;2023-10-31T09:29:41;8.90;99.90
10826;DHT22;5466;55.898;14.094;2023-10-31T09:31:41;9.00;99.90
10826;DHT22;5466;55.898;14.094;2023-10-31T09:33:42;9.00;99.90
10826;DHT22;5466;55.898;14.094;2023-10-31T09:35:43;9.00;99.90
10826;DHT22;5466;55.898;14.094;2023-10-31T09:37:43;9.00;99.90
10826;DHT22;5466;55.898;14.094;2023-10-31T09:39:45;9.00;99.90
10826;DHT22;5466;55.898;14.094;2023-10-31T09:41:47;9.00;99.90
10826;DHT22;5466;55.898;14.094;2023-10-31T09:43:48;9.10;99.90
10826;DHT22;5466;55.898;14.094;2023-10-31T09:45:48;9.10;99.90
10826;DHT22;5466;55.898;14.094;2023-10-31T09:47:49;9.10;99.90
10826;DHT22;5466;55.898;14.094;2023-10-31T09:49:50;9.20;99.90
10826;DHT22;5466;55.898;14.094;2023-10-31T09:51:51;9.30;99.90
10826;DHT22;5466;55.898;14.094;2023-10-31T09:53:54;9.30;99.90
10826;DHT22;5466;55.898;14.094;2023-10-31T09:55:56;9.40;99.90
10826;DHT22;5466;55.898;14.094;2023-10-31T09:57:57;9.40;99.90
10826;DHT22;5466;55.898;14.094;2023-10-31T09:59:58;9.40;99.90
10826;DHT22;5466;55.898;14.094;2023-10-31T10:01:59;9.40;99.90
10826;DHT22;5466;55.898;14.094;2023-10-31T10:04:00;9.40;99.90
10826;DHT22;5466;55.898;14.094;2023-10-31T10:06:02;9.40;99.90
10826;DHT22;5466;55.898;14.094;2023-10-31T10:08:06;9.40;99.90
10826;DHT22;5466;55.898;14.094;2023-10-31T10:10:11;9.40;99.90
10826;DHT22;5466;55.898;14.094;2023-10-31T10:12:15;9.50;99.90
10826;DHT22;5466;55.898;14.094;2023-10-31T10:14:16;9.50;99.90
10826;DHT22;5466;55.898;14.094;2023-10-31T10:16:33;9.50;99.90
10826;DHT22;5466;55.898;14.094;2023-10-31T10:18:35;9.60;99.90
10826;DHT22;5466;55.898;14.094;2023-10-31T10:21:03;9.60;99.90
10826;DHT22;5466;55.898;14.094;2023-10-31T10:23:04;9.60;99.90
10826;DHT22;5466;55.898;14.094;2023-10-31T10:25:08;9.70;99.90
10826;DHT22;5466;55.898;14.094;2023-10-31T10:27:09;9.70;99.90
10826;DHT22;5466;55.898;14.094;2023-10-31T10:29:10;9.70;99.90
10826;DHT22;5466;55.898;14.094;2023-10-31T10:31:14;9.60;99.90
10826;DHT22;5466;55.898;14.094;2023-10-31T10:33:15;9.60;99.90
10826;DHT22;5466;55.898;14.094;2023-10-31T10:35:16;9.70;99.90
10826;DHT22;5466;55.898;14.094;2023-10-31T10:37:18;9.70;99.90
10826;DHT22;5466;55.898;14.094;2023-10-31T10:39:21;9.70;99.90
10826;DHT22;5466;55.898;14.094;2023-10-31T10:41:25;9.70;99.90
10826;DHT22;5466;55.898;14.094;2023-10-31T10:43:26;9.80;99.90
10826;DHT22;5466;55.898;14.094;2023-10-31T10:45:27;9.70;99.90
10826;DHT22;5466;55.898;14.094;2023-10-31T10:47:29;9.80;99.90
10826;DHT22;5466;55.898;14.094;2023-10-31T10:49:35;9.80;99.90
10826;DHT22;5466;55.898;14.094;2023-10-31T10:52:01;9.80;99.90
10826;DHT22;5466;55.898;14.094;2023-10-31T10:54:08;9.90;99.90
10826;DHT22;5466;55.898;14.094;2023-10-31T10:56:16;9.90;99.90
10826;DHT22;5466;55.898;14.094;2023-10-31T11:01:01;9.90;99.90
10826;DHT22;5466;55.898;14.094;2023-10-31T11:03:03;9.90;99.90
10826;DHT22;5466;55.898;14.094;2023-10-31T11:05:07;9.80;99.90
10826;DHT22;5466;55.898;14.094;2023-10-31T11:07:09;9.80;99.90
10826;DHT22;5466;55.898;14.094;2023-10-31T11:09:10;9.80;99.90
10826;DHT22;5466;55.898;14.094;2023-10-31T11:11:14;9.80;99.90
10826;DHT22;5466;55.898;14.094;2023-10-31T11:13:18;9.90;99.90
10826;DHT22;5466;55.898;14.094;2023-10-31T11:15:19;9.90;99.90
10826;DHT22;5466;55.898;14.094;2023-10-31T11:17:24;9.90;99.90
10826;DHT22;5466;55.898;14.094;2023-10-31T11:19:26;9.90;99.90
10826;DHT22;5466;55.898;14.094;2023-10-31T11:21:28;9.90;99.90
10826;DHT22;5466;55.898;14.094;2023-10-31T11:23:29;9.90;99.90
10826;DHT22;5466;55.898;14.094;2023-10-31T11:25:31;9.90;99.90
10826;DHT22;5466;55.898;14.094;2023-10-31T11:27:34;9.90;99.90
10826;DHT22;5466;55.898;14.094;2023-10-31T11:29:38;9.80;99.90
10826;DHT22;5466;55.898;14.094;2023-10-31T11:31:39;9.80;99.90
10826;DHT22;5466;55.898;14.094;2023-10-31T11:33:40;9.80;99.90
10826;DHT22;5466;55.898;14.094;2023-10-31T11:35:43;9.80;99.90
10826;DHT22;5466;55.898;14.094;2023-10-31T11:37:49;9.70;99.90
10826;DHT22;5466;55.898;14.094;2023-10-31T11:40:20;9.80;99.90
10826;DHT22;5466;55.898;14.094;2023-10-31T11:42:21;9.80;99.90
10826;DHT22;5466;55.898;14.094;2023-10-31T11:44:26;9.90;99.90
10826;DHT22;5466;55.898;14.094;2023-10-31T11:46:28;9.80;99.90
10826;DHT22;5466;55.898;14.094;2023-10-31T11:48:51;9.80;99.90
10826;DHT22;5466;55.898;14.094;2023-10-31T11:50:52;9.80;99.90
10826;DHT22;5466;55.898;14.094;2023-10-31T11:53:00;9.80;99.90
10826;DHT22;5466;55.898;14.094;2023-10-31T11:55:02;9.80;99.90
10826;DHT22;5466;55.898;14.094;2023-10-31T11:57:03;9.80;99.90
10826;DHT22;5466;55.898;14.094;2023-10-31T11:59:05;9.90;99.90
10826;DHT22;5466;55.898;14.094;2023-10-31T12:01:09;9.90;99.90
10826;DHT22;5466;55.898;14.094;2023-10-31T12:03:10;9.90;99.90
10826;DHT22;5466;55.898;14.094;2023-10-31T12:05:12;10.00;99.90
10826;DHT22;5466;55.898;14.094;2023-10-31T12:07:13;9.90;99.90
10826;DHT22;5466;55.898;14.094;2023-10-31T12:09:14;10.00;99.90
10826;DHT22;5466;55.898;14.094;2023-10-31T12:11:16;9.90;99.90
10826;DHT22;5466;55.898;14.094;2023-10-31T12:13:18;9.90;99.90
10826;DHT22;5466;55.898;14.094;2023-10-31T12:15:18;9.90;99.90
10826;DHT22;5466;55.898;14.094;2023-10-31T12:17:19;9.90;99.90
10826;DHT22;5466;55.898;14.094;2023-10-31T12:19:21;9.90;99.90
10826;DHT22;5466;55.898;14.094;2023-10-31T12:23:38;9.90;99.90
10826;DHT22;5466;55.898;14.094;2023-10-31T12:25:47;9.90;99.90
10826;DHT22;5466;55.898;14.094;2023-10-31T12:27:48;9.80;99.90
10826;DHT22;5466;55.898;14.094;2023-10-31T12:30:00;9.90;99.90
10826;DHT22;5466;55.898;14.094;2023-10-31T12:32:01;9.80;99.90
10826;DHT22;5466;55.898;14.094;2023-10-31T12:34:06;9.90;99.90
10826;DHT22;5466;55.898;14.094;2023-10-31T12:36:07;9.90;99.90
10826;DHT22;5466;55.898;14.094;2023-10-31T12:38:10;9.80;99.90
10826;DHT22;5466;55.898;14.094;2023-10-31T12:40:17;9.80;99.90
10826;DHT22;5466;55.898;14.094;2023-10-31T12:42:18;9.80;99.90
10826;DHT22;5466;55.898;14.094;2023-10-31T12:44:26;9.80;99.90
10826;DHT22;5466;55.898;14.094;2023-10-31T12:46:31;9.80;99.90
10826;DHT22;5466;55.898;14.094;2023-10-31T12:48:32;9.80;99.90
10826;DHT22;5466;55.898;14.094;2023-10-31T12:50:34;9.80;99.90
10826;DHT22;5466;55.898;14.094;2023-10-31T12:52:53;9.70;99.90
10826;DHT22;5466;55.898;14.094;2023-10-31T12:54:54;9.70;99.90
10826;DHT22;5466;55.898;14.094;2023-10-31T12:56:59;9.70;99.90
10826;DHT22;5466;55.898;14.094;2023-10-31T12:59:00;9.70;99.90
10826;DHT22;5466;55.898;14.094;2023-10-31T13:01:00;9.70;99.90
10826;DHT22;5466;55.898;14.094;2023-10-31T13:03:02;9.80;99.90
10826;DHT22;5466;55.898;14.094;2023-10-31T13:05:15;9.70;99.90